createdAt,value
2019-05-23T00:00:50.067Z,13.20
2019-05-23T00:03:24.063Z,12.80
2019-05-23T00:05:57.155Z,11.78
2019-05-23T00:08:34.940Z,11.97
2019-05-23T00:11:11.739Z,9.60
2019-05-23T00:13:47.393Z,10.05
2019-05-23T00:16:22.029Z,9.90
2019-05-23T00:18:55.050Z,9.80
2019-05-23T00:21:27.648Z,10.45
2019-05-23T00:24:01.258Z,11.00
2019-05-23T00:26:35.636Z,9.55
2019-05-23T00:29:10.808Z,9.63
2019-05-23T00:31:45.820Z,8.73
2019-05-23T00:34:19.484Z,8.50
2019-05-23T00:36:52.135Z,9.13
2019-05-23T00:39:25.871Z,8.28
2019-05-23T00:41:58.837Z,7.90
2019-05-23T00:44:31.784Z,7.78
2019-05-23T00:47:04.312Z,7.20
2019-05-23T00:49:36.903Z,9.45
2019-05-23T00:52:09.561Z,8.65
2019-05-23T00:54:42.076Z,6.85
2019-05-23T00:57:23.242Z,6.53
2019-05-23T00:59:56.077Z,7.33
2019-05-23T01:02:48.368Z,6.92
2019-05-23T01:05:22.539Z,6.17
2019-05-23T01:07:54.989Z,8.23
2019-05-23T01:10:27.843Z,8.63
2019-05-23T01:13:00.071Z,6.75
2019-05-23T01:15:32.834Z,5.90
2019-05-23T01:18:06.598Z,4.83
2019-05-23T01:20:40.327Z,5.55
2019-05-23T01:23:12.898Z,5.85
2019-05-23T01:25:46.369Z,6.22
2019-05-23T01:28:20.187Z,5.12
2019-05-23T01:30:54.103Z,5.35
2019-05-23T01:33:26.365Z,6.05
2019-05-23T01:35:59.789Z,5.92
2019-05-23T01:38:33.004Z,7.45
2019-05-23T01:41:06.087Z,5.60
2019-05-23T01:43:39.030Z,5.70
2019-05-23T01:46:13.052Z,6.25
2019-05-23T01:48:45.835Z,6.45
2019-05-23T01:51:19.815Z,4.67
2019-05-23T01:53:53.296Z,5.97
2019-05-23T01:56:26.011Z,6.58
2019-05-23T01:58:59.514Z,6.72
2019-05-23T02:01:32.036Z,7.33
2019-05-23T02:04:05.351Z,7.97
2019-05-23T02:06:37.963Z,6.75
2019-05-23T02:09:12.076Z,7.58
2019-05-23T02:11:44.630Z,6.97
2019-05-23T02:14:18.156Z,7.03
2019-05-23T02:16:50.471Z,6.55
2019-05-23T02:19:24.379Z,7.83
2019-05-23T02:21:58.244Z,6.72
2019-05-23T02:24:30.945Z,6.15
2019-05-23T02:27:04.284Z,7.00
2019-05-23T02:29:37.460Z,7.17
2019-05-23T02:32:14.614Z,5.95
2019-05-23T02:34:47.820Z,5.75
2019-05-23T02:37:22.029Z,5.83
2019-05-23T02:39:55.285Z,6.37
2019-05-23T02:42:30.070Z,5.22
2019-05-23T02:45:03.693Z,6.92
2019-05-23T02:47:39.637Z,6.20
2019-05-23T02:50:16.682Z,6.78
2019-05-23T02:53:10.904Z,6.92
2019-05-23T02:55:45.860Z,7.25
2019-05-23T02:58:22.104Z,6.50
2019-05-23T03:00:57.509Z,6.72
2019-05-23T03:03:33.218Z,6.60
2019-05-23T03:06:07.961Z,8.15
2019-05-23T03:08:42.271Z,6.85
2019-05-23T03:11:19.427Z,6.80
2019-05-23T03:13:53.258Z,6.58
2019-05-23T03:16:28.799Z,6.78
2019-05-23T03:19:24.120Z,6.62
2019-05-23T03:22:02.619Z,6.03
2019-05-23T03:27:16.827Z,6.37
2019-05-23T03:29:49.298Z,5.65
2019-05-23T03:32:24.373Z,6.28
2019-05-23T03:35:17.459Z,5.53
2019-05-23T03:37:52.543Z,5.55
2019-05-23T03:40:26.297Z,5.45
2019-05-23T03:42:58.802Z,7.30
2019-05-23T03:45:32.929Z,6.55
2019-05-23T03:48:07.144Z,6.97
2019-05-23T03:50:40.249Z,6.60
2019-05-23T03:53:13.326Z,6.28
2019-05-23T03:55:47.548Z,6.22
2019-05-23T03:58:22.905Z,5.58
2019-05-23T04:00:58.169Z,5.17
2019-05-23T04:03:31.553Z,6.03
2019-05-23T04:06:03.834Z,6.60
2019-05-23T04:08:36.565Z,6.62
2019-05-23T04:11:08.496Z,5.60
2019-05-23T04:13:40.672Z,6.12
2019-05-23T04:16:12.807Z,5.78
2019-05-23T04:18:45.657Z,5.65
2019-05-23T04:21:19.444Z,5.37
2019-05-23T04:23:52.807Z,7.42
2019-05-23T04:26:26.713Z,6.45
2019-05-23T04:28:59.751Z,6.05
2019-05-23T04:31:32.845Z,5.75
2019-05-23T04:34:05.223Z,4.72
2019-05-23T04:36:37.181Z,6.20
2019-05-23T04:39:10.090Z,6.30
2019-05-23T04:41:42.498Z,5.90
2019-05-23T04:44:14.729Z,5.37
2019-05-23T04:46:47.563Z,6.37
2019-05-23T04:49:19.631Z,5.42
2019-05-23T04:51:52.436Z,6.00
2019-05-23T04:54:25.471Z,5.30
2019-05-23T04:56:57.634Z,6.72
2019-05-23T04:59:30.393Z,7.42
2019-05-23T05:02:03.279Z,6.50
2019-05-23T05:04:38.529Z,6.22
2019-05-23T05:07:11.808Z,6.20
2019-05-23T05:09:43.763Z,5.65
2019-05-23T05:12:17.953Z,6.37
2019-05-23T05:14:50.977Z,6.03
2019-05-23T05:17:43.385Z,6.15
2019-05-23T05:20:16.281Z,6.95
2019-05-23T05:22:48.854Z,5.70
2019-05-23T05:25:22.412Z,4.87
2019-05-23T05:27:54.599Z,4.90
2019-05-23T05:30:27.358Z,5.60
2019-05-23T05:33:00.689Z,11.90
2019-05-23T05:35:34.960Z,5.75
2019-05-23T05:38:07.170Z,5.03
2019-05-23T05:40:39.518Z,5.30
2019-05-23T05:43:31.852Z,5.17
2019-05-23T05:46:04.517Z,5.65
2019-05-23T05:48:37.024Z,5.45
2019-05-23T05:51:09.288Z,5.35
2019-05-23T05:53:41.332Z,6.17
2019-05-23T05:56:13.648Z,6.28
2019-05-23T05:58:46.256Z,5.53
2019-05-23T06:01:32.946Z,5.70
2019-05-23T06:03:53.267Z,6.50
2019-05-23T06:06:27.311Z,5.37
2019-05-23T06:09:00.759Z,6.58
2019-05-23T06:11:34.602Z,7.72
2019-05-23T06:14:07.692Z,6.37
2019-05-23T06:16:40.009Z,7.58
2019-05-23T06:19:12.484Z,6.20
2019-05-23T06:21:45.250Z,6.50
2019-05-23T06:24:17.514Z,7.67
2019-05-23T06:26:50.078Z,6.35
2019-05-23T06:29:23.612Z,6.03
2019-05-23T06:31:56.583Z,7.05
2019-05-23T06:34:29.121Z,6.85
2019-05-23T06:37:01.760Z,6.00
2019-05-23T06:39:34.050Z,6.70
2019-05-23T06:42:06.168Z,6.60
2019-05-23T06:44:39.196Z,7.80
2019-05-23T06:47:12.814Z,7.03
2019-05-23T06:49:45.359Z,6.35
2019-05-23T06:52:18.582Z,5.97
2019-05-23T06:54:50.540Z,6.65
2019-05-23T06:57:23.004Z,5.92
2019-05-23T06:59:55.259Z,5.67
2019-05-23T07:02:31.863Z,6.95
2019-05-23T07:05:02.690Z,5.70
2019-05-23T07:07:36.540Z,5.78
2019-05-23T07:10:10.380Z,6.25
2019-05-23T07:12:51.741Z,5.87
2019-05-23T07:15:24.593Z,6.97
2019-05-23T07:17:57.240Z,7.67
2019-05-23T07:20:31.184Z,5.92
2019-05-23T07:23:04.151Z,6.28
2019-05-23T07:25:36.541Z,6.33
2019-05-23T07:28:08.978Z,6.87
2019-05-23T07:30:41.090Z,6.87
2019-05-23T07:33:14.841Z,5.95
2019-05-23T07:35:46.929Z,6.85
2019-05-23T07:38:19.266Z,6.87
2019-05-23T07:40:52.515Z,6.90
2019-05-23T07:43:24.980Z,5.42
2019-05-23T07:45:59.106Z,5.30
2019-05-23T07:48:32.535Z,7.05
2019-05-23T07:51:05.327Z,6.62
2019-05-23T07:53:39.409Z,6.45
2019-05-23T07:56:13.118Z,5.60
2019-05-23T07:58:45.582Z,4.85
2019-05-23T08:01:38.865Z,5.20
2019-05-23T08:04:21.483Z,6.78
2019-05-23T08:06:48.725Z,9.98
2019-05-23T08:09:19.867Z,7.90
2019-05-23T08:11:52.360Z,7.95
2019-05-23T08:14:24.429Z,8.43
2019-05-23T08:16:56.869Z,6.92
2019-05-23T08:19:29.166Z,6.45
2019-05-23T08:22:01.165Z,6.87
2019-05-23T08:24:33.572Z,6.58
2019-05-23T08:27:06.520Z,7.08
2019-05-23T08:29:39.783Z,6.80
2019-05-23T08:32:13.020Z,5.67
2019-05-23T08:34:45.848Z,6.05
2019-05-23T08:37:18.440Z,6.85
2019-05-23T08:39:51.221Z,7.25
2019-05-23T08:42:23.741Z,6.08
2019-05-23T08:44:56.970Z,6.42
2019-05-23T08:47:30.117Z,6.00
2019-05-23T08:50:03.679Z,6.33
2019-05-23T08:52:41.594Z,5.37
2019-05-23T08:55:17.346Z,6.12
2019-05-23T08:57:49.689Z,6.55
2019-05-23T09:00:23.222Z,6.83
2019-05-23T09:02:58.721Z,7.62
2019-05-23T09:05:31.345Z,7.53
2019-05-23T09:08:04.217Z,7.15
2019-05-23T09:10:37.323Z,8.05
2019-05-23T09:13:10.592Z,6.55
2019-05-23T09:15:43.135Z,5.03
2019-05-23T09:18:15.907Z,5.47
2019-05-23T09:20:51.356Z,3.40
2019-05-23T09:23:23.752Z,4.33
2019-05-23T09:25:56.101Z,4.53
2019-05-23T09:28:28.540Z,3.35
2019-05-23T09:31:00.918Z,2.95
2019-05-23T09:33:33.211Z,3.52
2019-05-23T09:36:06.087Z,4.78
2019-05-23T09:38:38.376Z,4.65
2019-05-23T09:41:10.789Z,4.95
2019-05-23T09:44:01.927Z,4.85
2019-05-23T09:46:34.252Z,4.20
2019-05-23T09:52:01.568Z,5.37
2019-05-23T09:54:34.454Z,4.40
2019-05-23T09:57:25.374Z,4.65
2019-05-23T09:59:58.233Z,5.15
2019-05-23T10:02:30.314Z,5.12
2019-05-23T10:05:02.265Z,5.17
2019-05-23T10:07:34.424Z,11.63
2019-05-23T10:10:07.201Z,5.85
2019-05-23T10:12:39.820Z,5.10
2019-05-23T10:15:34.629Z,4.37
2019-05-23T10:18:07.137Z,4.65
2019-05-23T10:20:39.357Z,4.85
2019-05-23T10:23:11.585Z,5.00
2019-05-23T10:25:43.864Z,4.37
2019-05-23T10:28:16.810Z,4.25
2019-05-23T10:30:49.143Z,5.35
2019-05-23T10:33:21.380Z,4.20
2019-05-23T10:36:00.544Z,5.78
2019-05-23T10:38:37.086Z,4.25
2019-05-23T10:41:09.911Z,2.45
2019-05-23T10:44:01.065Z,4.35
2019-05-23T10:46:34.933Z,4.67
2019-05-23T10:49:07.502Z,3.77
2019-05-23T10:51:39.829Z,4.37
2019-05-23T10:54:12.234Z,7.05
2019-05-23T10:56:44.160Z,7.12
2019-05-23T10:59:19.926Z,6.62
2019-05-23T11:01:58.696Z,6.30
2019-05-23T11:04:31.095Z,5.35
2019-05-23T11:07:03.758Z,4.85
2019-05-23T11:09:38.545Z,4.58
2019-05-23T11:12:10.840Z,4.40
2019-05-23T11:14:43.228Z,4.50
2019-05-23T11:17:34.237Z,4.80
2019-05-23T11:20:10.625Z,4.67
2019-05-23T11:22:43.640Z,4.67
2019-05-23T11:25:16.670Z,4.40
2019-05-23T11:27:49.562Z,2.52
2019-05-23T11:30:25.415Z,2.47
2019-05-23T11:32:57.762Z,2.85
2019-05-23T11:35:30.518Z,3.70
2019-05-23T11:38:02.903Z,1.85
2019-05-23T11:40:35.389Z,2.62
2019-05-23T11:43:07.688Z,4.37
2019-05-23T11:45:46.060Z,4.33
2019-05-23T11:48:16.320Z,3.77
2019-05-23T11:51:07.635Z,4.20
2019-05-23T11:53:40.074Z,3.40
2019-05-23T11:56:12.335Z,3.90
2019-05-23T11:58:45.008Z,2.52
2019-05-23T12:01:21.284Z,2.60
2019-05-23T12:03:54.770Z,3.47
2019-05-23T12:06:28.111Z,3.10
2019-05-23T12:09:00.557Z,2.50
2019-05-23T12:11:36.641Z,3.47
2019-05-23T12:14:07.932Z,3.92
2019-05-23T12:16:40.150Z,4.22
2019-05-23T12:19:13.701Z,4.10
2019-05-23T12:21:46.486Z,2.80
2019-05-23T12:24:19.060Z,3.08
2019-05-23T12:26:51.494Z,2.67
2019-05-23T12:29:26.828Z,2.10
2019-05-23T12:32:03.308Z,2.00
2019-05-23T12:34:41.511Z,2.35
2019-05-23T12:37:25.652Z,2.77
2019-05-23T12:39:58.729Z,2.40
2019-05-23T12:42:42.210Z,2.22
2019-05-23T12:45:19.470Z,2.33
2019-05-23T12:48:02.042Z,2.10
2019-05-23T12:50:35.927Z,1.37
2019-05-23T12:53:09.527Z,2.08
2019-05-23T12:55:41.906Z,2.12
2019-05-23T12:58:14.361Z,1.98
2019-05-23T13:00:51.945Z,1.75
2019-05-23T13:03:24.400Z,4.00
2019-05-23T13:05:56.458Z,2.92
2019-05-23T13:08:30.110Z,2.15
2019-05-23T13:11:05.163Z,2.65
2019-05-23T13:13:37.660Z,3.37
2019-05-23T13:16:10.778Z,3.80
2019-05-23T13:18:43.020Z,3.12
2019-05-23T13:21:15.901Z,4.28
2019-05-23T13:24:02.243Z,3.33
2019-05-23T13:26:34.740Z,3.12
2019-05-23T13:29:16.195Z,2.62
2019-05-23T13:31:49.013Z,3.87
2019-05-23T13:34:28.513Z,3.37
2019-05-23T13:37:01.211Z,2.83
2019-05-23T13:39:52.305Z,1.50
2019-05-23T13:42:25.254Z,1.82
2019-05-23T13:44:57.695Z,2.80
2019-05-23T13:47:30.616Z,3.50
2019-05-23T13:50:02.608Z,3.05
2019-05-23T13:52:34.874Z,3.15
2019-05-23T13:55:09.543Z,3.20
2019-05-23T13:57:42.212Z,3.33
2019-05-23T14:00:16.248Z,2.87
2019-05-23T14:02:48.786Z,2.77
2019-05-23T14:05:21.551Z,3.60
2019-05-23T14:08:10.374Z,4.00
2019-05-23T14:10:28.430Z,3.50
2019-05-23T14:13:00.804Z,2.92
2019-05-23T14:15:35.855Z,3.35
2019-05-23T14:18:08.769Z,3.05
2019-05-23T14:20:40.927Z,3.47
2019-05-23T14:23:14.862Z,2.60
2019-05-23T14:25:47.973Z,2.72
2019-05-23T14:28:29.408Z,2.70
2019-05-23T14:31:03.389Z,2.98
2019-05-23T14:33:37.299Z,2.10
2019-05-23T14:36:10.918Z,2.95
2019-05-23T14:38:43.354Z,2.72
2019-05-23T14:41:16.828Z,2.50
2019-05-23T14:43:50.670Z,3.30
2019-05-23T14:46:23.576Z,3.70
2019-05-23T14:48:57.701Z,3.40
2019-05-23T14:51:31.339Z,3.67
2019-05-23T14:54:04.791Z,5.35
2019-05-23T14:56:38.140Z,2.90
2019-05-23T14:59:10.526Z,3.25
2019-05-23T15:01:42.941Z,4.08
2019-05-23T15:04:15.864Z,4.72
2019-05-23T15:06:48.729Z,5.20
2019-05-23T15:09:21.801Z,5.42
2019-05-23T15:11:53.816Z,5.37
2019-05-23T15:14:25.705Z,5.97
2019-05-23T15:16:58.634Z,5.97
2019-05-23T15:19:40.392Z,5.37
2019-05-23T15:22:04.649Z,5.40
2019-05-23T15:24:36.631Z,4.95
2019-05-23T15:27:09.497Z,6.05
2019-05-23T15:29:41.926Z,6.20
2019-05-23T15:32:13.924Z,5.70
2019-05-23T15:34:46.442Z,6.58
2019-05-23T15:37:18.557Z,6.42
2019-05-23T15:39:50.551Z,7.00
2019-05-23T15:42:22.554Z,6.72
2019-05-23T15:44:54.879Z,5.85
2019-05-23T15:47:28.861Z,7.80
2019-05-23T15:50:06.968Z,6.87
2019-05-23T15:52:37.776Z,7.17
2019-05-23T15:55:11.796Z,7.87
2019-05-23T15:57:50.609Z,7.83
2019-05-23T16:00:24.561Z,8.03
2019-05-23T16:02:58.092Z,7.80
2019-05-23T16:05:35.557Z,7.97
2019-05-23T16:08:09.031Z,8.30
2019-05-23T16:10:41.911Z,8.98
2019-05-23T16:13:14.401Z,8.63
2019-05-23T16:15:46.897Z,8.53
2019-05-23T16:18:19.999Z,8.85
2019-05-23T16:20:54.384Z,8.25
2019-05-23T16:23:37.906Z,9.75
2019-05-23T16:26:15.358Z,9.13
2019-05-23T16:28:50.780Z,10.05
2019-05-23T16:31:22.834Z,9.03
2019-05-23T16:33:55.626Z,11.12
2019-05-23T16:36:28.377Z,10.00
2019-05-23T16:39:00.572Z,9.85
2019-05-23T16:41:32.617Z,10.50
2019-05-23T16:44:05.556Z,11.03
2019-05-23T16:46:37.537Z,10.93
2019-05-23T16:49:09.591Z,11.33
2019-05-23T16:51:41.993Z,11.00
2019-05-23T16:54:14.587Z,10.23
2019-05-23T16:56:48.731Z,10.13
2019-05-23T16:59:22.218Z,8.80
2019-05-23T17:02:05.322Z,9.03
2019-05-23T17:04:29.643Z,9.40
2019-05-23T17:07:03.368Z,8.60
2019-05-23T17:09:36.719Z,8.95
2019-05-23T17:12:10.045Z,8.23
2019-05-23T17:14:43.765Z,7.78
2019-05-23T17:17:37.969Z,8.23
2019-05-23T17:19:53.728Z,7.37
2019-05-23T17:22:27.843Z,7.10
2019-05-23T17:25:01.334Z,6.45
2019-05-23T17:27:35.261Z,6.65
2019-05-23T17:30:11.607Z,5.67
2019-05-23T17:32:43.903Z,5.60
2019-05-23T17:35:16.534Z,5.53
2019-05-23T17:37:48.685Z,5.97
2019-05-23T17:40:24.819Z,5.97
2019-05-23T17:42:54.761Z,5.65
2019-05-23T17:45:27.417Z,5.50
2019-05-23T17:48:00.182Z,6.53
2019-05-23T17:50:34.966Z,5.55
2019-05-23T17:53:06.715Z,4.90
2019-05-23T17:55:39.685Z,5.80
2019-05-23T17:58:11.875Z,5.70
2019-05-23T18:00:45.434Z,5.95
2019-05-23T18:03:17.835Z,6.45
2019-05-23T18:05:49.705Z,6.33
2019-05-23T18:08:23.365Z,6.00
2019-05-23T18:10:56.267Z,6.83
2019-05-23T18:13:29.464Z,6.80
2019-05-23T18:16:01.573Z,6.87
2019-05-23T18:18:34.265Z,7.83
2019-05-23T18:21:07.817Z,7.80
2019-05-23T18:23:40.704Z,7.20
2019-05-23T18:26:13.142Z,8.85
2019-05-23T18:28:45.733Z,9.45
2019-05-23T18:31:19.251Z,9.05
2019-05-23T18:33:51.616Z,7.87
2019-05-23T18:36:24.526Z,7.30
2019-05-23T18:38:58.583Z,7.95
2019-05-23T18:41:31.309Z,7.95
2019-05-23T18:44:03.246Z,8.50
2019-05-23T18:46:38.106Z,9.00
2019-05-23T18:49:10.945Z,9.05
2019-05-23T18:51:43.575Z,8.83
2019-05-23T18:54:15.709Z,9.35
2019-05-23T18:56:47.904Z,9.50
2019-05-23T18:59:20.238Z,8.48
2019-05-23T19:01:53.172Z,9.85
2019-05-23T19:04:25.759Z,9.28
2019-05-23T19:06:58.857Z,9.95
2019-05-23T19:09:50.746Z,9.58
2019-05-23T19:12:23.848Z,9.60
2019-05-23T19:14:56.329Z,10.15
2019-05-23T19:17:30.648Z,10.20
2019-05-23T19:20:02.906Z,9.48
2019-05-23T19:22:35.250Z,8.45
2019-05-23T19:25:10.347Z,8.60
2019-05-23T19:27:42.535Z,8.85
2019-05-23T19:30:15.671Z,9.23
2019-05-23T19:32:47.809Z,8.48
2019-05-23T19:35:20.252Z,8.10
2019-05-23T19:37:52.252Z,8.10
2019-05-23T19:40:24.816Z,8.20
2019-05-23T19:42:57.872Z,7.97
2019-05-23T19:45:31.145Z,8.05
2019-05-23T19:48:04.087Z,8.95
2019-05-23T19:50:36.858Z,9.68
2019-05-23T19:53:09.269Z,8.50
2019-05-23T19:55:41.951Z,8.13
2019-05-23T19:58:14.370Z,8.70
2019-05-23T20:00:47.827Z,9.28
2019-05-23T20:03:21.183Z,8.80
2019-05-23T20:05:54.574Z,8.73
2019-05-23T20:08:27.089Z,9.65
2019-05-23T20:10:59.530Z,9.70
2019-05-23T20:13:31.879Z,10.15
2019-05-23T20:16:04.747Z,9.48
2019-05-23T20:18:37.085Z,10.35
2019-05-23T20:21:09.106Z,10.35
2019-05-23T20:23:42.075Z,9.63
2019-05-23T20:26:14.376Z,9.90
2019-05-23T20:28:46.436Z,10.03
2019-05-23T20:31:19.067Z,10.55
2019-05-23T20:33:51.347Z,11.12
2019-05-23T20:36:23.894Z,10.38
2019-05-23T20:38:56.575Z,10.95
2019-05-23T20:41:28.997Z,11.90
2019-05-23T20:44:01.234Z,10.75
2019-05-23T20:46:33.672Z,11.33
2019-05-23T20:49:05.736Z,11.22
2019-05-23T20:51:39.193Z,10.48
2019-05-23T20:54:11.284Z,11.20
2019-05-23T20:56:43.301Z,12.70
2019-05-23T20:59:15.550Z,11.15
2019-05-23T21:01:47.790Z,12.45
2019-05-23T21:04:19.912Z,12.47
2019-05-23T21:06:52.117Z,12.55
2019-05-23T21:09:24.557Z,12.20
2019-05-23T21:11:56.621Z,11.95
2019-05-23T21:14:29.041Z,12.40
2019-05-23T21:17:01.233Z,16.07
2019-05-23T21:19:33.466Z,18.57
2019-05-23T21:22:06.512Z,15.83
2019-05-23T21:24:38.559Z,14.43
2019-05-23T21:27:10.485Z,14.30
2019-05-23T21:29:42.603Z,13.58
2019-05-23T21:32:14.944Z,13.72
2019-05-23T21:34:47.112Z,13.25
2019-05-23T21:37:20.136Z,13.48
2019-05-23T21:39:52.081Z,12.95
2019-05-23T21:42:24.594Z,13.22
2019-05-23T21:44:56.671Z,13.43
2019-05-23T21:47:28.784Z,13.95
2019-05-23T21:50:00.742Z,13.55
2019-05-23T21:52:33.408Z,13.90
2019-05-23T21:55:07.361Z,13.50
2019-05-23T21:57:39.510Z,14.18
2019-05-23T22:00:13.497Z,14.45
2019-05-23T22:02:45.831Z,14.10
2019-05-23T22:05:19.556Z,15.48
2019-05-23T22:07:52.123Z,17.10
2019-05-23T22:10:24.243Z,16.27
2019-05-23T22:13:04.481Z,15.48
2019-05-23T22:15:34.467Z,15.88
2019-05-23T22:18:07.535Z,15.32
2019-05-23T22:20:40.102Z,16.10
2019-05-23T22:23:12.603Z,16.93
2019-05-23T22:25:44.667Z,17.17
2019-05-23T22:28:17.274Z,18.23
2019-05-23T22:30:49.304Z,16.73
2019-05-23T22:33:23.238Z,18.12
2019-05-23T22:35:55.504Z,18.25
2019-05-23T22:38:27.539Z,16.93
2019-05-23T22:40:59.785Z,16.90
2019-05-23T22:43:32.032Z,16.67
2019-05-23T22:46:04.274Z,17.35
2019-05-23T22:48:36.301Z,18.57
2019-05-23T22:51:08.688Z,17.67
2019-05-23T22:53:40.824Z,17.57
2019-05-23T22:56:12.757Z,17.82
2019-05-23T22:58:45.556Z,17.57
2019-05-23T23:01:18.540Z,16.70
2019-05-23T23:03:50.736Z,16.27
2019-05-23T23:06:23.517Z,16.10
2019-05-23T23:08:55.589Z,16.93
2019-05-23T23:11:27.687Z,17.62
2019-05-23T23:13:59.726Z,15.58
2019-05-23T23:16:31.761Z,17.95
2019-05-23T23:19:04.311Z,17.05
2019-05-23T23:21:36.383Z,16.20
2019-05-23T23:24:08.774Z,15.45
2019-05-23T23:26:40.649Z,15.38
2019-05-23T23:29:13.303Z,15.98
2019-05-23T23:31:45.798Z,16.35
2019-05-23T23:34:18.438Z,16.30
2019-05-23T23:36:50.451Z,15.35
2019-05-23T23:39:22.685Z,16.73
2019-05-23T23:41:55.140Z,14.98
2019-05-23T23:44:28.603Z,14.23
2019-05-23T23:47:02.505Z,15.88
2019-05-23T23:49:35.917Z,16.07
2019-05-23T23:52:10.380Z,14.98
2019-05-23T23:54:44.827Z,14.50
2019-05-23T23:57:19.072Z,16.97
2019-05-23T23:59:50.823Z,14.03
